createdAt,value
2019-03-01T00:02:28.369Z,3.85
2019-03-01T00:05:18.033Z,3.83
2019-03-01T00:08:08.552Z,3.73
2019-03-01T00:10:46.964Z,3.72
2019-03-01T00:13:43.958Z,3.64
2019-03-01T00:16:31.655Z,3.68
2019-03-01T00:19:15.061Z,3.58
2019-03-01T00:22:08.561Z,3.56
2019-03-01T00:25:11.765Z,3.51
2019-03-01T00:28:15.126Z,3.51
2019-03-01T00:31:04.525Z,3.51
2019-03-01T00:33:42.070Z,3.50
2019-03-01T00:36:16.850Z,3.46
2019-03-01T00:39:18.243Z,3.43
2019-03-01T00:42:03.319Z,3.38
2019-03-01T00:44:48.383Z,3.23
2019-03-01T00:47:20.099Z,3.28
2019-03-01T00:49:51.154Z,3.32
2019-03-01T00:52:22.478Z,3.42
2019-03-01T00:54:53.866Z,3.41
2019-03-01T00:57:25.107Z,3.26
2019-03-01T00:59:56.237Z,3.41
2019-03-01T01:02:27.486Z,3.47
2019-03-01T01:04:58.665Z,3.48
2019-03-01T01:07:29.790Z,3.44
2019-03-01T01:10:01.042Z,3.48
2019-03-01T01:12:32.702Z,3.40
2019-03-01T01:15:05.806Z,3.49
2019-03-01T01:17:37.536Z,3.48
2019-03-01T01:20:09.803Z,3.49
2019-03-01T01:22:41.249Z,3.47
2019-03-01T01:25:12.287Z,3.51
2019-03-01T01:27:44.733Z,3.51
2019-03-01T01:30:17.142Z,3.50
2019-03-01T01:32:49.308Z,3.54
2019-03-01T01:35:20.362Z,3.57
2019-03-01T01:37:52.890Z,3.58
2019-03-01T01:40:24.327Z,3.58
2019-03-01T01:42:57.202Z,3.54
2019-03-01T01:45:28.375Z,3.56
2019-03-01T01:47:59.739Z,3.51
2019-03-01T01:50:30.946Z,3.57
2019-03-01T01:53:02.005Z,3.50
2019-03-01T01:55:33.193Z,3.59
2019-03-01T01:58:04.493Z,3.54
2019-03-01T02:00:35.790Z,3.58
2019-03-01T02:03:06.983Z,3.52
2019-03-01T02:05:38.264Z,3.46
2019-03-01T02:08:09.534Z,3.46
2019-03-01T02:10:40.735Z,3.42
2019-03-01T02:13:12.034Z,3.36
2019-03-01T02:15:43.176Z,3.29
2019-03-01T02:18:14.425Z,3.22
2019-03-01T02:20:45.468Z,3.19
2019-03-01T02:23:16.655Z,3.10
2019-03-01T02:25:47.853Z,3.01
2019-03-01T02:28:21.039Z,2.93
2019-03-01T02:30:57.527Z,2.89
2019-03-01T02:33:28.877Z,2.71
2019-03-01T02:36:00.325Z,2.65
2019-03-01T02:38:31.770Z,2.62
2019-03-01T02:41:02.721Z,2.61
2019-03-01T02:43:35.920Z,2.57
2019-03-01T02:46:07.253Z,2.54
2019-03-01T02:48:38.198Z,2.44
2019-03-01T02:51:09.482Z,2.43
2019-03-01T02:53:40.991Z,2.42
2019-03-01T02:56:12.239Z,2.43
2019-03-01T02:58:45.074Z,2.35
2019-03-01T03:01:16.490Z,2.34
2019-03-01T03:03:48.125Z,2.43
2019-03-01T03:06:21.053Z,2.50
2019-03-01T03:08:56.078Z,2.51
2019-03-01T03:11:27.483Z,2.61
2019-03-01T03:13:59.384Z,2.77
2019-03-01T03:16:32.124Z,2.82
2019-03-01T03:19:03.308Z,2.83
2019-03-01T03:21:34.547Z,2.84
2019-03-01T03:24:05.809Z,2.87
2019-03-01T03:26:37.344Z,2.88
2019-03-01T03:29:08.398Z,2.86
2019-03-01T03:31:39.332Z,2.82
2019-03-01T03:34:11.658Z,2.80
2019-03-01T03:36:42.757Z,2.72
2019-03-01T03:39:13.766Z,2.69
2019-03-01T03:41:46.897Z,2.71
2019-03-01T03:44:25.750Z,2.78
2019-03-01T03:46:56.966Z,2.75
2019-03-01T03:49:28.197Z,2.65
2019-03-01T03:51:59.416Z,2.68
2019-03-01T03:54:30.619Z,2.66
2019-03-01T03:57:01.651Z,2.60
2019-03-01T03:59:32.887Z,2.62
2019-03-01T04:02:04.102Z,2.51
2019-03-01T04:04:35.297Z,2.50
2019-03-01T04:07:06.543Z,2.44
2019-03-01T04:09:37.975Z,2.45
2019-03-01T04:12:09.118Z,2.43
2019-03-01T04:14:40.297Z,2.40
2019-03-01T04:17:11.683Z,2.47
2019-03-01T04:19:43.261Z,2.50
2019-03-01T04:22:14.510Z,2.52
2019-03-01T04:24:46.015Z,2.49
2019-03-01T04:27:19.203Z,2.23
2019-03-01T04:29:51.679Z,2.33
2019-03-01T04:32:23.079Z,2.40
2019-03-01T04:34:54.306Z,2.46
2019-03-01T04:37:25.779Z,2.39
2019-03-01T04:39:57.129Z,2.44
2019-03-01T04:42:28.491Z,2.48
2019-03-01T04:45:02.665Z,2.58
2019-03-01T04:47:36.698Z,2.61
2019-03-01T04:50:09.959Z,2.59
2019-03-01T04:52:41.442Z,2.68
2019-03-01T04:55:18.139Z,2.63
2019-03-01T04:57:49.380Z,2.75
2019-03-01T05:00:22.704Z,2.84
2019-03-01T05:02:53.837Z,2.87
2019-03-01T05:05:25.321Z,2.96
2019-03-01T05:07:56.890Z,2.96
2019-03-01T05:10:28.021Z,2.93
2019-03-01T05:12:59.090Z,3.09
2019-03-01T05:15:30.675Z,3.16
2019-03-01T05:18:03.758Z,3.19
2019-03-01T05:20:35.309Z,3.16
2019-03-01T05:23:07.066Z,3.14
2019-03-01T05:25:39.391Z,3.13
2019-03-01T05:28:10.595Z,3.17
2019-03-01T05:30:41.699Z,3.17
2019-03-01T05:33:13.244Z,3.13
2019-03-01T05:35:44.298Z,3.12
2019-03-01T05:38:21.689Z,3.11
2019-03-01T05:40:49.402Z,3.09
2019-03-01T05:43:21.764Z,3.08
2019-03-01T05:45:55.776Z,3.12
2019-03-01T05:48:27.201Z,3.15
2019-03-01T05:51:03.558Z,3.18
2019-03-01T05:53:34.899Z,3.17
2019-03-01T05:56:07.136Z,3.09
2019-03-01T05:58:40.515Z,3.10
2019-03-01T06:01:21.172Z,3.17
2019-03-01T06:04:04.401Z,3.13
2019-03-01T06:06:57.360Z,3.14
2019-03-01T06:09:40.740Z,3.24
2019-03-01T06:12:15.187Z,3.36
2019-03-01T06:15:07.162Z,3.30
2019-03-01T06:17:50.830Z,3.27
2019-03-01T06:20:37.606Z,3.23
2019-03-01T06:23:14.958Z,3.31
2019-03-01T06:25:52.003Z,3.37
2019-03-01T06:29:01.137Z,3.27
2019-03-01T06:31:44.795Z,3.22
2019-03-01T06:34:22.261Z,3.13
2019-03-01T06:36:59.730Z,3.13
2019-03-01T06:39:48.019Z,3.16
2019-03-01T06:42:41.264Z,3.20
2019-03-01T06:45:18.571Z,3.27
2019-03-01T06:47:51.944Z,3.30
2019-03-01T06:50:25.135Z,3.29
2019-03-01T06:52:56.477Z,3.00
2019-03-01T06:55:36.185Z,3.30
2019-03-01T06:58:18.938Z,3.33
2019-03-01T07:00:55.008Z,3.43
2019-03-01T07:03:26.507Z,3.54
2019-03-01T07:06:03.618Z,3.50
2019-03-01T07:08:35.671Z,3.46
2019-03-01T07:11:07.797Z,3.51
2019-03-01T07:13:40.962Z,3.55
2019-03-01T07:16:12.411Z,3.71
2019-03-01T07:18:44.653Z,3.90
2019-03-01T07:21:18.999Z,3.96
2019-03-01T07:23:51.437Z,4.14
2019-03-01T07:26:22.765Z,4.33
2019-03-01T07:28:56.240Z,4.48
2019-03-01T07:31:29.559Z,4.42
2019-03-01T07:34:08.659Z,4.30
2019-03-01T07:36:41.014Z,4.27
2019-03-01T07:39:13.690Z,4.33
2019-03-01T07:41:49.606Z,4.28
2019-03-01T07:44:28.874Z,4.31
2019-03-01T07:47:03.320Z,4.37
2019-03-01T07:49:38.151Z,4.52
2019-03-01T07:52:25.030Z,4.46
2019-03-01T07:54:56.305Z,4.50
2019-03-01T07:57:36.842Z,4.09
2019-03-01T08:00:18.050Z,4.05
2019-03-01T08:02:53.314Z,3.97
2019-03-01T08:05:24.768Z,3.93
2019-03-01T08:08:03.554Z,4.04
2019-03-01T08:10:33.814Z,4.18
2019-03-01T08:13:06.357Z,4.06
2019-03-01T08:15:45.049Z,4.13
2019-03-01T08:18:16.063Z,4.24
2019-03-01T08:20:47.388Z,4.36
2019-03-01T08:23:20.826Z,4.30
2019-03-01T08:25:55.633Z,4.18
2019-03-01T08:28:27.390Z,4.26
2019-03-01T08:30:59.033Z,4.36
2019-03-01T08:33:30.322Z,4.45
2019-03-01T08:36:07.189Z,4.59
2019-03-01T08:38:39.903Z,4.75
2019-03-01T08:41:25.200Z,4.72
2019-03-01T08:43:59.110Z,4.63
2019-03-01T08:46:30.644Z,4.61
2019-03-01T08:49:02.032Z,4.59
2019-03-01T08:51:35.172Z,4.71
2019-03-01T08:54:06.779Z,4.77
2019-03-01T08:56:38.194Z,4.76
2019-03-01T08:59:17.600Z,4.58
2019-03-01T09:01:50.390Z,4.60
2019-03-01T09:04:22.803Z,4.95
2019-03-01T09:06:54.267Z,5.13
2019-03-01T09:09:27.762Z,5.46
2019-03-01T09:12:01.202Z,5.06
2019-03-01T09:14:33.660Z,4.91
2019-03-01T09:17:06.248Z,5.27
2019-03-01T09:19:38.404Z,5.48
2019-03-01T09:22:09.647Z,5.40
2019-03-01T09:24:42.966Z,4.93
2019-03-01T09:27:17.171Z,4.76
2019-03-01T09:29:49.481Z,4.75
2019-03-01T09:32:24.089Z,4.47
2019-03-01T09:35:08.198Z,4.28
2019-03-01T09:37:40.273Z,4.42
2019-03-01T09:40:11.525Z,4.49
2019-03-01T09:42:42.954Z,4.66
2019-03-01T09:45:16.363Z,4.71
2019-03-01T09:47:47.956Z,4.75
2019-03-01T09:50:21.731Z,4.79
2019-03-01T09:52:55.662Z,4.75
2019-03-01T09:55:27.853Z,4.78
2019-03-01T09:58:00.292Z,4.93
2019-03-01T10:00:40.589Z,5.25
2019-03-01T10:03:13.052Z,5.29
2019-03-01T10:05:44.216Z,4.98
2019-03-01T10:08:15.598Z,4.71
2019-03-01T10:10:47.847Z,4.55
2019-03-01T10:13:19.087Z,4.52
2019-03-01T10:15:52.001Z,4.68
2019-03-01T10:18:24.400Z,4.75
2019-03-01T10:20:56.777Z,4.91
2019-03-01T10:23:29.801Z,5.02
2019-03-01T10:26:06.999Z,4.99
2019-03-01T10:28:44.612Z,4.84
2019-03-01T10:31:17.100Z,4.64
2019-03-01T10:33:48.683Z,4.54
2019-03-01T10:36:21.476Z,4.39
2019-03-01T10:38:53.880Z,4.14
2019-03-01T10:41:25.580Z,3.85
2019-03-01T10:43:58.583Z,3.77
2019-03-01T10:46:33.459Z,3.73
2019-03-01T10:49:06.410Z,3.73
2019-03-01T10:51:37.944Z,3.73
2019-03-01T10:54:13.612Z,3.95
2019-03-01T10:56:44.162Z,4.20
2019-03-01T11:01:54.199Z,3.85
2019-03-01T11:04:25.672Z,3.77
2019-03-01T11:06:58.126Z,3.80
2019-03-01T11:09:33.262Z,3.90
2019-03-01T11:12:05.533Z,4.12
2019-03-01T11:14:38.447Z,4.75
2019-03-01T11:17:20.413Z,5.73
2019-03-01T11:19:51.758Z,5.79
2019-03-01T11:22:23.258Z,5.40
2019-03-01T11:24:54.909Z,4.82
2019-03-01T11:27:26.336Z,4.43
2019-03-01T11:30:02.633Z,4.22
2019-03-01T11:32:34.988Z,3.76
2019-03-01T11:35:06.497Z,3.68
2019-03-01T11:37:37.989Z,3.69
2019-03-01T11:40:13.347Z,3.73
2019-03-01T11:42:44.584Z,3.83
2019-03-01T11:45:20.733Z,3.96
2019-03-01T11:47:52.098Z,4.06
2019-03-01T11:50:24.549Z,4.13
2019-03-01T11:52:55.602Z,4.17
2019-03-01T11:55:28.144Z,4.11
2019-03-01T11:57:59.530Z,3.96
2019-03-01T12:00:30.777Z,3.91
2019-03-01T12:03:01.966Z,3.99
2019-03-01T12:05:34.561Z,3.90
2019-03-01T12:08:06.080Z,3.93
2019-03-01T12:10:37.732Z,3.81
2019-03-01T12:13:10.709Z,3.78
2019-03-01T12:15:42.147Z,3.84
2019-03-01T12:18:17.461Z,3.84
2019-03-01T12:20:54.788Z,3.93
2019-03-01T12:23:26.462Z,3.88
2019-03-01T12:26:05.951Z,3.76
2019-03-01T12:28:40.019Z,3.82
2019-03-01T12:31:11.460Z,3.85
2019-03-01T12:33:44.449Z,3.76
2019-03-01T12:36:15.910Z,3.85
2019-03-01T12:38:47.312Z,3.85
2019-03-01T12:41:19.809Z,3.86
2019-03-01T12:43:52.128Z,3.75
2019-03-01T12:46:23.345Z,3.79
2019-03-01T12:48:54.792Z,3.89
2019-03-01T12:51:27.430Z,3.83
2019-03-01T12:53:59.716Z,3.85
2019-03-01T12:56:32.314Z,3.81
2019-03-01T12:59:03.667Z,3.75
2019-03-01T13:01:35.029Z,3.75
2019-03-01T13:04:06.440Z,3.72
2019-03-01T13:06:38.979Z,3.83
2019-03-01T13:09:13.845Z,3.85
2019-03-01T13:11:48.636Z,3.78
2019-03-01T13:14:23.400Z,3.67
2019-03-01T13:16:58.550Z,3.52
2019-03-01T13:19:38.843Z,3.51
2019-03-01T13:22:12.599Z,3.38
2019-03-01T13:24:44.132Z,3.37
2019-03-01T13:27:17.498Z,3.40
2019-03-01T13:29:49.726Z,3.38
2019-03-01T13:32:23.176Z,3.37
2019-03-01T13:34:55.570Z,3.32
2019-03-01T13:37:26.780Z,3.38
2019-03-01T13:40:01.652Z,3.36
2019-03-01T13:42:35.288Z,3.39
2019-03-01T13:45:11.874Z,3.42
2019-03-01T13:47:44.009Z,3.43
2019-03-01T13:50:19.271Z,3.51
2019-03-01T13:52:54.531Z,3.51
2019-03-01T13:55:27.692Z,3.48
2019-03-01T13:58:09.791Z,3.48
2019-03-01T14:00:45.609Z,3.43
2019-03-01T14:03:27.620Z,3.44
2019-03-01T14:05:57.716Z,3.36
2019-03-01T14:08:29.356Z,3.44
2019-03-01T14:11:02.728Z,3.41
2019-03-01T14:13:34.534Z,3.39
2019-03-01T14:16:06.211Z,3.37
2019-03-01T14:18:37.888Z,3.35
2019-03-01T14:21:10.383Z,3.31
2019-03-01T14:23:42.243Z,3.36
2019-03-01T14:26:15.109Z,3.31
2019-03-01T14:28:48.483Z,3.27
2019-03-01T14:31:20.459Z,3.19
2019-03-01T14:34:02.978Z,3.13
2019-03-01T14:36:34.480Z,3.08
2019-03-01T14:39:11.794Z,3.02
2019-03-01T14:41:44.292Z,3.06
2019-03-01T14:44:21.475Z,3.10
2019-03-01T14:46:55.990Z,3.04
2019-03-01T14:49:29.148Z,3.02
2019-03-01T14:52:02.139Z,2.96
2019-03-01T14:54:34.014Z,2.94
2019-03-01T14:57:10.670Z,2.92
2019-03-01T14:59:48.784Z,2.86
2019-03-01T15:02:26.151Z,2.69
2019-03-01T15:05:05.283Z,2.85
2019-03-01T15:07:38.529Z,2.88
2019-03-01T15:10:13.459Z,2.85
2019-03-01T15:12:45.311Z,2.92
2019-03-01T15:15:17.505Z,2.90
2019-03-01T15:17:57.029Z,2.89
2019-03-01T15:20:31.617Z,2.88
2019-03-01T15:23:06.244Z,2.88
2019-03-01T15:25:39.031Z,2.89
2019-03-01T15:28:23.319Z,2.86
2019-03-01T15:31:02.287Z,2.80
2019-03-01T15:33:33.928Z,2.82
2019-03-01T15:36:05.475Z,2.74
2019-03-01T15:38:37.323Z,2.76
2019-03-01T15:41:11.462Z,2.78
2019-03-01T15:43:49.435Z,2.68
2019-03-01T15:46:21.092Z,2.66
2019-03-01T15:48:52.855Z,2.71
2019-03-01T15:51:28.447Z,2.73
2019-03-01T15:54:01.065Z,2.67
2019-03-01T15:56:39.488Z,2.57
2019-03-01T15:59:13.755Z,2.65
2019-03-01T16:01:47.131Z,2.67
2019-03-01T16:04:18.692Z,2.61
2019-03-01T16:06:55.187Z,2.53
2019-03-01T16:09:25.307Z,2.55
2019-03-01T16:11:58.761Z,2.53
2019-03-01T16:14:34.225Z,2.53
2019-03-01T16:17:06.633Z,2.50
2019-03-01T16:19:38.287Z,2.37
2019-03-01T16:22:09.775Z,2.44
2019-03-01T16:24:45.053Z,2.36
2019-03-01T16:27:20.952Z,2.32
2019-03-01T16:29:52.703Z,2.33
2019-03-01T16:32:24.323Z,2.23
2019-03-01T16:34:55.862Z,2.22
2019-03-01T16:37:29.816Z,2.20
2019-03-01T16:40:03.372Z,2.07
2019-03-01T16:42:38.486Z,2.01
2019-03-01T16:45:14.287Z,2.02
2019-03-01T16:47:45.816Z,2.00
2019-03-01T16:50:20.852Z,2.07
2019-03-01T16:52:54.618Z,2.04
2019-03-01T16:55:29.693Z,2.02
2019-03-01T16:58:07.356Z,2.09
2019-03-01T17:00:38.939Z,2.13
2019-03-01T17:03:17.965Z,2.17
2019-03-01T17:05:50.658Z,2.08
2019-03-01T17:08:22.127Z,2.24
2019-03-01T17:10:53.549Z,2.24
2019-03-01T17:13:27.085Z,2.26
2019-03-01T17:16:03.010Z,2.24
2019-03-01T17:18:36.585Z,2.17
2019-03-01T17:21:12.538Z,2.27
2019-03-01T17:23:43.221Z,2.28
2019-03-01T17:26:15.825Z,2.30
2019-03-01T17:28:50.453Z,2.26
2019-03-01T17:31:27.951Z,2.27
2019-03-01T17:34:01.268Z,2.22
2019-03-01T17:36:35.343Z,2.23
2019-03-01T17:39:07.213Z,2.26
2019-03-01T17:41:44.859Z,2.28
2019-03-01T17:44:14.914Z,2.23
2019-03-01T17:46:49.202Z,2.27
2019-03-01T17:49:23.225Z,2.19
2019-03-01T17:51:56.504Z,2.21
2019-03-01T17:54:31.467Z,2.25
2019-03-01T17:57:03.013Z,2.24
2019-03-01T17:59:35.080Z,2.21
2019-03-01T18:02:07.046Z,2.24
2019-03-01T18:04:39.836Z,2.23
2019-03-01T18:07:11.482Z,2.19
2019-03-01T18:09:42.890Z,2.20
2019-03-01T18:12:17.425Z,2.18
2019-03-01T18:14:49.117Z,2.17
2019-03-01T18:17:22.027Z,2.22
2019-03-01T18:19:58.805Z,2.21
2019-03-01T18:22:29.219Z,2.16
2019-03-01T18:25:10.234Z,2.19
2019-03-01T18:27:41.840Z,2.16
2019-03-01T18:30:24.884Z,2.11
2019-03-01T18:33:02.324Z,2.12
2019-03-01T18:35:34.351Z,2.15
2019-03-01T18:38:11.910Z,2.17
2019-03-01T18:40:43.575Z,2.08
2019-03-01T18:43:15.125Z,2.14
2019-03-01T18:45:49.136Z,2.12
2019-03-01T18:48:23.348Z,2.20
2019-03-01T18:50:56.338Z,2.19
2019-03-01T18:53:30.657Z,2.22
2019-03-01T18:56:04.162Z,2.24
2019-03-01T18:58:35.490Z,2.26
2019-03-01T19:01:10.887Z,2.24
2019-03-01T19:03:42.313Z,2.23
2019-03-01T19:06:16.223Z,2.18
2019-03-01T19:08:49.803Z,2.15
2019-03-01T19:11:21.187Z,2.13
2019-03-01T19:13:55.135Z,2.14
2019-03-01T19:16:29.821Z,2.09
2019-03-01T19:19:01.768Z,2.10
2019-03-01T19:21:33.319Z,2.09
2019-03-01T19:24:08.036Z,2.14
2019-03-01T19:26:41.552Z,2.10
2019-03-01T19:29:13.112Z,2.11
2019-03-01T19:31:44.452Z,2.03
2019-03-01T19:34:16.901Z,1.95
2019-03-01T19:36:49.400Z,1.93
2019-03-01T19:39:21.072Z,1.94
2019-03-01T19:41:54.535Z,2.00
2019-03-01T19:44:28.891Z,1.99
2019-03-01T19:46:58.682Z,1.98
2019-03-01T19:49:30.156Z,2.01
2019-03-01T19:52:01.410Z,2.00
2019-03-01T19:54:35.723Z,2.02
2019-03-01T19:57:06.640Z,2.03
2019-03-01T19:59:37.990Z,2.03
2019-03-01T20:02:10.212Z,2.09
2019-03-01T20:04:46.065Z,2.01
2019-03-01T20:07:20.824Z,1.99
2019-03-01T20:09:52.094Z,2.04
2019-03-01T20:12:23.967Z,2.06
2019-03-01T20:14:55.404Z,2.05
2019-03-01T20:17:30.378Z,2.02
2019-03-01T20:20:01.487Z,2.03
2019-03-01T20:22:34.022Z,2.07
2019-03-01T20:25:08.179Z,2.04
2019-03-01T20:27:40.274Z,2.02
2019-03-01T20:30:32.617Z,1.99
2019-03-01T20:33:07.196Z,2.01
2019-03-01T20:35:38.561Z,1.97
2019-03-01T20:38:09.929Z,1.87
2019-03-01T20:40:41.076Z,1.95
2019-03-01T20:43:12.350Z,1.90
2019-03-01T20:45:43.764Z,1.91
2019-03-01T20:48:15.806Z,1.87
2019-03-01T20:50:50.988Z,1.92
2019-03-01T20:53:21.081Z,1.91
2019-03-01T20:55:52.388Z,1.88
2019-03-01T20:58:26.452Z,1.81
2019-03-01T21:01:01.951Z,1.84
2019-03-01T21:03:36.205Z,1.81
2019-03-01T21:06:07.484Z,1.82
2019-03-01T21:08:41.632Z,1.84
2019-03-01T21:11:12.871Z,1.79
2019-03-01T21:13:45.721Z,1.78
2019-03-01T21:16:17.452Z,1.78
2019-03-01T21:18:49.723Z,1.81
2019-03-01T21:21:21.069Z,1.78
2019-03-01T21:23:55.187Z,1.74
2019-03-01T21:26:27.772Z,1.72
2019-03-01T21:28:59.025Z,1.73
2019-03-01T21:31:35.415Z,1.68
2019-03-01T21:34:07.045Z,1.62
2019-03-01T21:36:38.275Z,1.59
2019-03-01T21:39:09.733Z,1.50
2019-03-01T21:41:44.504Z,1.53
2019-03-01T21:44:16.043Z,1.43
2019-03-01T21:46:50.648Z,1.38
2019-03-01T21:49:24.973Z,1.35
2019-03-01T21:51:57.236Z,1.34
2019-03-01T21:54:29.698Z,1.32
2019-03-01T21:57:00.969Z,1.26
2019-03-01T21:59:33.170Z,1.24
2019-03-01T22:02:05.709Z,1.33
2019-03-01T22:04:38.211Z,1.28
2019-03-01T22:07:09.326Z,1.33
2019-03-01T22:09:41.539Z,1.26
2019-03-01T22:12:14.805Z,1.24
2019-03-01T22:14:49.053Z,1.26
2019-03-01T22:17:21.336Z,1.24
2019-03-01T22:19:53.550Z,1.10
2019-03-01T22:22:24.904Z,1.15
2019-03-01T22:24:58.684Z,1.26
2019-03-01T22:27:28.801Z,1.22
2019-03-01T22:30:01.819Z,1.21
2019-03-01T22:32:34.629Z,1.22
2019-03-01T22:35:10.832Z,1.29
2019-03-01T22:37:42.118Z,1.33
2019-03-01T22:40:13.533Z,1.32
2019-03-01T22:42:49.819Z,1.25
2019-03-01T22:45:19.404Z,1.22
2019-03-01T22:47:51.009Z,1.21
2019-03-01T22:50:22.261Z,1.17
2019-03-01T22:52:54.435Z,1.17
2019-03-01T22:55:26.845Z,1.18
2019-03-01T22:58:05.569Z,1.20
2019-03-01T23:00:54.574Z,1.04
2019-03-01T23:03:26.441Z,1.04
2019-03-01T23:05:57.887Z,1.02
2019-03-01T23:08:31.800Z,1.06
2019-03-01T23:11:03.312Z,1.05
2019-03-01T23:13:36.656Z,0.87
2019-03-01T23:16:07.795Z,0.90
2019-03-01T23:18:40.543Z,0.98
2019-03-01T23:21:11.723Z,0.97
2019-03-01T23:23:42.972Z,0.92
2019-03-01T23:26:14.312Z,0.96
2019-03-01T23:28:52.626Z,0.91
2019-03-01T23:31:24.206Z,0.95
2019-03-01T23:33:55.628Z,0.88
2019-03-01T23:36:28.556Z,0.85
2019-03-01T23:38:59.867Z,0.84
2019-03-01T23:41:31.015Z,0.89
2019-03-01T23:44:06.106Z,0.95
2019-03-01T23:46:35.485Z,0.88
2019-03-01T23:49:07.048Z,0.88
2019-03-01T23:51:38.120Z,0.85
2019-03-01T23:54:09.986Z,0.90
2019-03-01T23:56:41.164Z,0.83
2019-03-01T23:59:12.712Z,0.80
